sensor_id;sensor_type;location;lat;lon;timestamp;P1;durP1;ratioP1;P2;durP2;ratioP2
59008;SDS011;44794;42.652;23.318;2023-04-30T00:02:06;22.42;;;13.48;;
59008;SDS011;44794;42.652;23.318;2023-04-30T00:04:32;27.17;;;14.82;;
59008;SDS011;44794;42.652;23.318;2023-04-30T00:06:57;26.77;;;14.65;;
59008;SDS011;44794;42.652;23.318;2023-04-30T00:09:23;23.73;;;13.85;;
59008;SDS011;44794;42.652;23.318;2023-04-30T00:11:48;25.08;;;14.93;;
59008;SDS011;44794;42.652;23.318;2023-04-30T00:14:14;24.52;;;15.40;;
59008;SDS011;44794;42.652;23.318;2023-04-30T00:16:39;27.15;;;15.23;;
59008;SDS011;44794;42.652;23.318;2023-04-30T00:19:05;26.33;;;14.93;;
59008;SDS011;44794;42.652;23.318;2023-04-30T00:21:31;22.52;;;14.40;;
59008;SDS011;44794;42.652;23.318;2023-04-30T00:23:57;24.17;;;13.55;;
59008;SDS011;44794;42.652;23.318;2023-04-30T00:26:24;24.95;;;13.77;;
59008;SDS011;44794;42.652;23.318;2023-04-30T00:28:50;21.58;;;14.15;;
59008;SDS011;44794;42.652;23.318;2023-04-30T00:31:15;26.10;;;14.50;;
59008;SDS011;44794;42.652;23.318;2023-04-30T00:33:41;26.02;;;14.57;;
59008;SDS011;44794;42.652;23.318;2023-04-30T00:36:06;25.38;;;13.98;;
59008;SDS011;44794;42.652;23.318;2023-04-30T00:38:31;23.52;;;14.15;;
59008;SDS011;44794;42.652;23.318;2023-04-30T00:40:57;26.75;;;14.70;;
59008;SDS011;44794;42.652;23.318;2023-04-30T00:43:22;19.70;;;14.00;;
59008;SDS011;44794;42.652;23.318;2023-04-30T00:45:48;20.98;;;13.40;;
59008;SDS011;44794;42.652;23.318;2023-04-30T00:48:13;26.58;;;14.38;;
59008;SDS011;44794;42.652;23.318;2023-04-30T00:50:40;23.33;;;13.25;;
59008;SDS011;44794;42.652;23.318;2023-04-30T00:53:09;19.73;;;12.57;;
59008;SDS011;44794;42.652;23.318;2023-04-30T00:55:36;26.60;;;12.77;;
59008;SDS011;44794;42.652;23.318;2023-04-30T00:58:02;21.75;;;12.95;;
59008;SDS011;44794;42.652;23.318;2023-04-30T01:00:27;20.83;;;12.88;;
59008;SDS011;44794;42.652;23.318;2023-04-30T01:02:54;22.50;;;12.50;;
59008;SDS011;44794;42.652;23.318;2023-04-30T01:05:20;26.83;;;13.27;;
59008;SDS011;44794;42.652;23.318;2023-04-30T01:07:47;19.83;;;12.75;;
59008;SDS011;44794;42.652;23.318;2023-04-30T01:10:13;20.70;;;12.75;;
59008;SDS011;44794;42.652;23.318;2023-04-30T01:12:58;29.88;;;17.20;;
59008;SDS011;44794;42.652;23.318;2023-04-30T01:18:37;25.15;;;15.10;;
59008;SDS011;44794;42.652;23.318;2023-04-30T01:21:08;27.38;;;15.68;;
59008;SDS011;44794;42.652;23.318;2023-04-30T01:23:41;25.10;;;14.10;;
59008;SDS011;44794;42.652;23.318;2023-04-30T01:28:51;22.77;;;13.82;;
59008;SDS011;44794;42.652;23.318;2023-04-30T01:31:18;22.58;;;12.98;;
59008;SDS011;44794;42.652;23.318;2023-04-30T01:33:44;22.65;;;13.35;;
59008;SDS011;44794;42.652;23.318;2023-04-30T01:36:18;24.38;;;13.65;;
59008;SDS011;44794;42.652;23.318;2023-04-30T01:42:11;19.50;;;13.60;;
59008;SDS011;44794;42.652;23.318;2023-04-30T01:44:23;24.35;;;14.35;;
59008;SDS011;44794;42.652;23.318;2023-04-30T01:47:05;24.85;;;14.35;;
59008;SDS011;44794;42.652;23.318;2023-04-30T01:52:04;21.05;;;13.23;;
59008;SDS011;44794;42.652;23.318;2023-04-30T01:54:54;17.67;;;12.82;;
59008;SDS011;44794;42.652;23.318;2023-04-30T01:57:27;22.35;;;13.55;;
59008;SDS011;44794;42.652;23.318;2023-04-30T01:59:56;21.77;;;13.23;;
59008;SDS011;44794;42.652;23.318;2023-04-30T02:02:22;22.25;;;13.27;;
59008;SDS011;44794;42.652;23.318;2023-04-30T02:04:47;18.45;;;13.10;;
59008;SDS011;44794;42.652;23.318;2023-04-30T02:07:13;21.73;;;13.52;;
59008;SDS011;44794;42.652;23.318;2023-04-30T02:09:52;24.52;;;13.23;;
59008;SDS011;44794;42.652;23.318;2023-04-30T02:12:17;23.25;;;14.38;;
59008;SDS011;44794;42.652;23.318;2023-04-30T02:14:43;25.48;;;14.43;;
59008;SDS011;44794;42.652;23.318;2023-04-30T02:17:08;24.52;;;14.00;;
59008;SDS011;44794;42.652;23.318;2023-04-30T02:19:34;20.38;;;14.23;;
59008;SDS011;44794;42.652;23.318;2023-04-30T02:21:59;22.58;;;14.38;;
59008;SDS011;44794;42.652;23.318;2023-04-30T02:24:25;23.10;;;14.90;;
59008;SDS011;44794;42.652;23.318;2023-04-30T02:26:50;28.17;;;15.88;;
59008;SDS011;44794;42.652;23.318;2023-04-30T02:29:15;27.17;;;14.45;;
59008;SDS011;44794;42.652;23.318;2023-04-30T02:31:41;30.83;;;16.02;;
59008;SDS011;44794;42.652;23.318;2023-04-30T02:34:06;22.88;;;15.02;;
59008;SDS011;44794;42.652;23.318;2023-04-30T02:36:32;23.80;;;15.52;;
59008;SDS011;44794;42.652;23.318;2023-04-30T02:39:00;26.58;;;16.27;;
59008;SDS011;44794;42.652;23.318;2023-04-30T02:41:26;23.83;;;15.05;;
59008;SDS011;44794;42.652;23.318;2023-04-30T02:43:51;23.27;;;14.88;;
59008;SDS011;44794;42.652;23.318;2023-04-30T02:46:16;21.83;;;13.98;;
59008;SDS011;44794;42.652;23.318;2023-04-30T02:48:43;24.73;;;13.77;;
59008;SDS011;44794;42.652;23.318;2023-04-30T02:51:08;25.63;;;13.77;;
59008;SDS011;44794;42.652;23.318;2023-04-30T02:53:34;23.55;;;13.85;;
59008;SDS011;44794;42.652;23.318;2023-04-30T02:55:59;26.08;;;14.25;;
59008;SDS011;44794;42.652;23.318;2023-04-30T02:58:25;22.27;;;13.57;;
59008;SDS011;44794;42.652;23.318;2023-04-30T03:00:50;21.98;;;13.15;;
59008;SDS011;44794;42.652;23.318;2023-04-30T03:03:16;22.88;;;13.10;;
59008;SDS011;44794;42.652;23.318;2023-04-30T03:05:41;24.55;;;14.38;;
59008;SDS011;44794;42.652;23.318;2023-04-30T03:08:06;23.45;;;13.27;;
59008;SDS011;44794;42.652;23.318;2023-04-30T03:10:32;22.33;;;13.27;;
59008;SDS011;44794;42.652;23.318;2023-04-30T03:12:57;19.85;;;12.43;;
59008;SDS011;44794;42.652;23.318;2023-04-30T03:15:23;22.45;;;13.27;;
59008;SDS011;44794;42.652;23.318;2023-04-30T03:17:48;20.83;;;12.55;;
59008;SDS011;44794;42.652;23.318;2023-04-30T03:20:13;23.52;;;13.00;;
59008;SDS011;44794;42.652;23.318;2023-04-30T03:22:39;19.02;;;12.50;;
59008;SDS011;44794;42.652;23.318;2023-04-30T03:25:05;21.27;;;13.30;;
59008;SDS011;44794;42.652;23.318;2023-04-30T03:27:30;22.27;;;12.45;;
59008;SDS011;44794;42.652;23.318;2023-04-30T03:29:56;21.02;;;13.02;;
59008;SDS011;44794;42.652;23.318;2023-04-30T03:32:21;18.35;;;12.38;;
59008;SDS011;44794;42.652;23.318;2023-04-30T03:34:47;19.77;;;12.45;;
59008;SDS011;44794;42.652;23.318;2023-04-30T03:37:12;18.10;;;11.95;;
59008;SDS011;44794;42.652;23.318;2023-04-30T03:39:37;20.23;;;12.75;;
59008;SDS011;44794;42.652;23.318;2023-04-30T03:42:03;19.52;;;12.20;;
59008;SDS011;44794;42.652;23.318;2023-04-30T03:44:28;18.33;;;12.18;;
59008;SDS011;44794;42.652;23.318;2023-04-30T03:46:54;19.33;;;13.57;;
59008;SDS011;44794;42.652;23.318;2023-04-30T03:49:19;21.40;;;13.50;;
59008;SDS011;44794;42.652;23.318;2023-04-30T03:51:45;22.88;;;14.25;;
59008;SDS011;44794;42.652;23.318;2023-04-30T03:54:16;22.98;;;14.68;;
59008;SDS011;44794;42.652;23.318;2023-04-30T03:56:42;28.23;;;16.05;;
59008;SDS011;44794;42.652;23.318;2023-04-30T03:59:08;24.75;;;15.82;;
59008;SDS011;44794;42.652;23.318;2023-04-30T04:01:33;24.40;;;15.23;;
59008;SDS011;44794;42.652;23.318;2023-04-30T04:03:59;23.73;;;14.93;;
59008;SDS011;44794;42.652;23.318;2023-04-30T04:06:25;24.58;;;14.63;;
59008;SDS011;44794;42.652;23.318;2023-04-30T04:08:50;24.80;;;15.00;;
59008;SDS011;44794;42.652;23.318;2023-04-30T04:11:16;23.80;;;14.63;;
59008;SDS011;44794;42.652;23.318;2023-04-30T04:13:41;20.77;;;13.40;;
59008;SDS011;44794;42.652;23.318;2023-04-30T04:16:07;23.00;;;13.70;;
59008;SDS011;44794;42.652;23.318;2023-04-30T04:18:33;21.40;;;14.00;;
59008;SDS011;44794;42.652;23.318;2023-04-30T04:20:59;21.60;;;13.95;;
59008;SDS011;44794;42.652;23.318;2023-04-30T04:23:25;18.42;;;13.50;;
59008;SDS011;44794;42.652;23.318;2023-04-30T04:25:51;26.20;;;13.88;;
59008;SDS011;44794;42.652;23.318;2023-04-30T04:28:17;19.73;;;12.73;;
59008;SDS011;44794;42.652;23.318;2023-04-30T04:30:42;21.88;;;13.95;;
59008;SDS011;44794;42.652;23.318;2023-04-30T04:33:08;21.05;;;13.35;;
59008;SDS011;44794;42.652;23.318;2023-04-30T04:35:34;23.55;;;13.48;;
59008;SDS011;44794;42.652;23.318;2023-04-30T04:38:00;22.30;;;13.57;;
59008;SDS011;44794;42.652;23.318;2023-04-30T04:40:26;19.85;;;12.88;;
59008;SDS011;44794;42.652;23.318;2023-04-30T04:42:51;21.58;;;12.65;;
59008;SDS011;44794;42.652;23.318;2023-04-30T04:45:17;19.30;;;12.25;;
59008;SDS011;44794;42.652;23.318;2023-04-30T04:47:45;21.92;;;13.07;;
59008;SDS011;44794;42.652;23.318;2023-04-30T04:50:11;17.25;;;12.32;;
59008;SDS011;44794;42.652;23.318;2023-04-30T04:52:37;18.00;;;12.35;;
59008;SDS011;44794;42.652;23.318;2023-04-30T04:55:03;18.13;;;13.45;;
59008;SDS011;44794;42.652;23.318;2023-04-30T04:57:29;21.10;;;14.50;;
59008;SDS011;44794;42.652;23.318;2023-04-30T04:59:55;20.92;;;14.18;;
59008;SDS011;44794;42.652;23.318;2023-04-30T05:02:21;26.10;;;15.07;;
59008;SDS011;44794;42.652;23.318;2023-04-30T05:04:47;19.35;;;13.85;;
59008;SDS011;44794;42.652;23.318;2023-04-30T05:07:15;21.02;;;14.00;;
59008;SDS011;44794;42.652;23.318;2023-04-30T05:09:41;21.08;;;14.63;;
59008;SDS011;44794;42.652;23.318;2023-04-30T05:12:07;19.05;;;13.65;;
59008;SDS011;44794;42.652;23.318;2023-04-30T05:14:32;24.15;;;14.95;;
59008;SDS011;44794;42.652;23.318;2023-04-30T05:16:58;26.65;;;15.02;;
59008;SDS011;44794;42.652;23.318;2023-04-30T05:19:23;21.88;;;14.45;;
59008;SDS011;44794;42.652;23.318;2023-04-30T05:21:49;23.10;;;14.00;;
59008;SDS011;44794;42.652;23.318;2023-04-30T05:24:15;23.70;;;13.82;;
59008;SDS011;44794;42.652;23.318;2023-04-30T05:26:40;20.92;;;14.40;;
59008;SDS011;44794;42.652;23.318;2023-04-30T05:29:06;22.55;;;14.77;;
59008;SDS011;44794;42.652;23.318;2023-04-30T05:31:31;20.60;;;13.95;;
59008;SDS011;44794;42.652;23.318;2023-04-30T05:33:57;22.95;;;14.65;;
59008;SDS011;44794;42.652;23.318;2023-04-30T05:36:22;23.52;;;14.07;;
59008;SDS011;44794;42.652;23.318;2023-04-30T05:38:48;22.08;;;14.27;;
59008;SDS011;44794;42.652;23.318;2023-04-30T05:41:13;24.33;;;14.60;;
59008;SDS011;44794;42.652;23.318;2023-04-30T05:43:38;23.10;;;14.52;;
59008;SDS011;44794;42.652;23.318;2023-04-30T05:46:04;25.98;;;16.52;;
59008;SDS011;44794;42.652;23.318;2023-04-30T05:48:30;21.45;;;13.80;;
59008;SDS011;44794;42.652;23.318;2023-04-30T05:50:55;21.95;;;15.20;;
59008;SDS011;44794;42.652;23.318;2023-04-30T05:53:21;23.45;;;14.73;;
59008;SDS011;44794;42.652;23.318;2023-04-30T05:55:46;23.73;;;15.82;;
59008;SDS011;44794;42.652;23.318;2023-04-30T05:58:12;19.48;;;14.57;;
59008;SDS011;44794;42.652;23.318;2023-04-30T06:00:37;21.55;;;15.27;;
59008;SDS011;44794;42.652;23.318;2023-04-30T06:03:03;21.98;;;14.90;;
59008;SDS011;44794;42.652;23.318;2023-04-30T06:05:28;20.23;;;14.88;;
59008;SDS011;44794;42.652;23.318;2023-04-30T06:07:54;21.85;;;14.10;;
59008;SDS011;44794;42.652;23.318;2023-04-30T06:10:19;26.13;;;15.05;;
59008;SDS011;44794;42.652;23.318;2023-04-30T06:12:45;23.95;;;14.95;;
59008;SDS011;44794;42.652;23.318;2023-04-30T06:15:10;24.33;;;14.15;;
59008;SDS011;44794;42.652;23.318;2023-04-30T06:17:36;22.25;;;14.73;;
59008;SDS011;44794;42.652;23.318;2023-04-30T06:20:02;22.75;;;15.27;;
59008;SDS011;44794;42.652;23.318;2023-04-30T06:22:30;26.73;;;15.52;;
59008;SDS011;44794;42.652;23.318;2023-04-30T06:24:57;22.80;;;14.57;;
59008;SDS011;44794;42.652;23.318;2023-04-30T06:27:22;24.33;;;13.73;;
59008;SDS011;44794;42.652;23.318;2023-04-30T06:29:48;20.05;;;13.85;;
59008;SDS011;44794;42.652;23.318;2023-04-30T06:32:14;23.23;;;15.35;;
59008;SDS011;44794;42.652;23.318;2023-04-30T06:34:39;29.73;;;14.50;;
59008;SDS011;44794;42.652;23.318;2023-04-30T06:37:05;21.25;;;13.32;;
59008;SDS011;44794;42.652;23.318;2023-04-30T06:39:30;22.13;;;13.20;;
59008;SDS011;44794;42.652;23.318;2023-04-30T06:41:57;22.73;;;13.70;;
59008;SDS011;44794;42.652;23.318;2023-04-30T06:44:26;18.50;;;12.85;;
59008;SDS011;44794;42.652;23.318;2023-04-30T06:46:57;19.55;;;12.20;;
59008;SDS011;44794;42.652;23.318;2023-04-30T06:49:22;18.95;;;12.13;;
59008;SDS011;44794;42.652;23.318;2023-04-30T06:51:48;16.90;;;12.30;;
59008;SDS011;44794;42.652;23.318;2023-04-30T06:54:13;17.30;;;11.50;;
59008;SDS011;44794;42.652;23.318;2023-04-30T06:56:40;17.15;;;12.13;;
59008;SDS011;44794;42.652;23.318;2023-04-30T06:59:05;16.38;;;11.68;;
59008;SDS011;44794;42.652;23.318;2023-04-30T07:01:30;19.48;;;12.07;;
59008;SDS011;44794;42.652;23.318;2023-04-30T07:03:56;20.05;;;11.48;;
59008;SDS011;44794;42.652;23.318;2023-04-30T07:06:23;21.58;;;12.20;;
59008;SDS011;44794;42.652;23.318;2023-04-30T07:08:48;18.85;;;12.07;;
59008;SDS011;44794;42.652;23.318;2023-04-30T07:11:14;17.95;;;12.00;;
59008;SDS011;44794;42.652;23.318;2023-04-30T07:13:39;21.25;;;12.88;;
59008;SDS011;44794;42.652;23.318;2023-04-30T07:16:05;19.13;;;12.65;;
59008;SDS011;44794;42.652;23.318;2023-04-30T07:18:33;22.33;;;12.68;;
59008;SDS011;44794;42.652;23.318;2023-04-30T07:20:58;22.70;;;12.77;;
59008;SDS011;44794;42.652;23.318;2023-04-30T07:23:23;19.83;;;13.10;;
59008;SDS011;44794;42.652;23.318;2023-04-30T07:25:49;17.08;;;12.57;;
59008;SDS011;44794;42.652;23.318;2023-04-30T07:28:14;23.67;;;13.60;;
59008;SDS011;44794;42.652;23.318;2023-04-30T07:30:40;17.70;;;12.45;;
59008;SDS011;44794;42.652;23.318;2023-04-30T07:33:05;18.17;;;12.10;;
59008;SDS011;44794;42.652;23.318;2023-04-30T07:35:32;22.73;;;13.35;;
59008;SDS011;44794;42.652;23.318;2023-04-30T07:37:57;21.25;;;13.43;;
59008;SDS011;44794;42.652;23.318;2023-04-30T07:40:23;23.25;;;13.35;;
59008;SDS011;44794;42.652;23.318;2023-04-30T07:42:48;20.70;;;12.75;;
59008;SDS011;44794;42.652;23.318;2023-04-30T07:45:14;20.08;;;12.23;;
59008;SDS011;44794;42.652;23.318;2023-04-30T07:47:39;20.05;;;12.18;;
59008;SDS011;44794;42.652;23.318;2023-04-30T07:50:05;20.30;;;12.70;;
59008;SDS011;44794;42.652;23.318;2023-04-30T07:52:31;20.55;;;12.93;;
59008;SDS011;44794;42.652;23.318;2023-04-30T07:54:56;17.95;;;11.60;;
59008;SDS011;44794;42.652;23.318;2023-04-30T07:57:22;18.63;;;10.05;;
59008;SDS011;44794;42.652;23.318;2023-04-30T07:59:47;16.23;;;8.65;;
59008;SDS011;44794;42.652;23.318;2023-04-30T08:02:13;13.65;;;8.88;;
59008;SDS011;44794;42.652;23.318;2023-04-30T08:04:38;16.48;;;10.23;;
59008;SDS011;44794;42.652;23.318;2023-04-30T08:07:04;19.08;;;8.52;;
59008;SDS011;44794;42.652;23.318;2023-04-30T08:09:29;14.35;;;8.27;;
59008;SDS011;44794;42.652;23.318;2023-04-30T08:11:55;12.75;;;7.93;;
59008;SDS011;44794;42.652;23.318;2023-04-30T08:14:20;14.18;;;8.00;;
59008;SDS011;44794;42.652;23.318;2023-04-30T08:16:46;13.38;;;7.00;;
59008;SDS011;44794;42.652;23.318;2023-04-30T08:19:12;11.57;;;6.80;;
59008;SDS011;44794;42.652;23.318;2023-04-30T08:21:38;10.20;;;6.35;;
59008;SDS011;44794;42.652;23.318;2023-04-30T08:24:04;12.77;;;6.70;;
59008;SDS011;44794;42.652;23.318;2023-04-30T08:26:31;12.52;;;5.60;;
59008;SDS011;44794;42.652;23.318;2023-04-30T08:28:56;8.57;;;5.75;;
59008;SDS011;44794;42.652;23.318;2023-04-30T08:31:22;10.95;;;5.70;;
59008;SDS011;44794;42.652;23.318;2023-04-30T08:33:47;10.90;;;5.93;;
59008;SDS011;44794;42.652;23.318;2023-04-30T08:36:12;7.47;;;5.45;;
59008;SDS011;44794;42.652;23.318;2023-04-30T08:38:38;8.45;;;5.60;;
59008;SDS011;44794;42.652;23.318;2023-04-30T08:43:30;11.65;;;5.55;;
59008;SDS011;44794;42.652;23.318;2023-04-30T08:45:59;7.57;;;5.07;;
59008;SDS011;44794;42.652;23.318;2023-04-30T08:48:26;8.35;;;5.50;;
59008;SDS011;44794;42.652;23.318;2023-04-30T08:50:52;8.15;;;5.57;;
59008;SDS011;44794;42.652;23.318;2023-04-30T08:53:17;7.50;;;4.90;;
59008;SDS011;44794;42.652;23.318;2023-04-30T08:55:45;7.28;;;4.90;;
59008;SDS011;44794;42.652;23.318;2023-04-30T08:58:11;10.00;;;5.05;;
59008;SDS011;44794;42.652;23.318;2023-04-30T09:00:37;7.88;;;5.43;;
59008;SDS011;44794;42.652;23.318;2023-04-30T09:03:06;6.47;;;4.80;;
59008;SDS011;44794;42.652;23.318;2023-04-30T09:05:32;6.13;;;4.60;;
59008;SDS011;44794;42.652;23.318;2023-04-30T09:07:58;8.65;;;5.00;;
59008;SDS011;44794;42.652;23.318;2023-04-30T09:10:23;5.40;;;4.57;;
59008;SDS011;44794;42.652;23.318;2023-04-30T09:13:02;8.10;;;4.13;;
59008;SDS011;44794;42.652;23.318;2023-04-30T09:15:30;10.43;;;4.57;;
59008;SDS011;44794;42.652;23.318;2023-04-30T09:18:15;8.10;;;4.82;;
59008;SDS011;44794;42.652;23.318;2023-04-30T09:20:55;5.75;;;5.00;;
59008;SDS011;44794;42.652;23.318;2023-04-30T09:23:22;7.70;;;4.95;;
59008;SDS011;44794;42.652;23.318;2023-04-30T09:25:47;7.40;;;5.45;;
59008;SDS011;44794;42.652;23.318;2023-04-30T09:28:13;8.52;;;4.88;;
59008;SDS011;44794;42.652;23.318;2023-04-30T09:30:39;8.02;;;4.90;;
59008;SDS011;44794;42.652;23.318;2023-04-30T09:33:05;8.80;;;5.47;;
59008;SDS011;44794;42.652;23.318;2023-04-30T09:35:31;6.93;;;5.10;;
59008;SDS011;44794;42.652;23.318;2023-04-30T09:37:59;5.22;;;4.45;;
59008;SDS011;44794;42.652;23.318;2023-04-30T09:40:35;5.82;;;4.65;;
59008;SDS011;44794;42.652;23.318;2023-04-30T09:43:02;6.55;;;5.20;;
59008;SDS011;44794;42.652;23.318;2023-04-30T09:45:47;7.10;;;4.90;;
59008;SDS011;44794;42.652;23.318;2023-04-30T09:48:22;7.97;;;4.85;;
59008;SDS011;44794;42.652;23.318;2023-04-30T09:50:50;7.85;;;4.95;;
59008;SDS011;44794;42.652;23.318;2023-04-30T09:53:15;5.00;;;4.50;;
59008;SDS011;44794;42.652;23.318;2023-04-30T09:55:45;6.80;;;4.90;;
59008;SDS011;44794;42.652;23.318;2023-04-30T09:58:12;7.03;;;4.93;;
59008;SDS011;44794;42.652;23.318;2023-04-30T10:00:38;6.00;;;4.68;;
59008;SDS011;44794;42.652;23.318;2023-04-30T10:03:05;5.55;;;4.70;;
59008;SDS011;44794;42.652;23.318;2023-04-30T10:05:39;5.15;;;4.38;;
59008;SDS011;44794;42.652;23.318;2023-04-30T10:08:09;4.50;;;4.10;;
59008;SDS011;44794;42.652;23.318;2023-04-30T10:10:39;4.80;;;3.97;;
59008;SDS011;44794;42.652;23.318;2023-04-30T10:13:13;6.60;;;4.15;;
59008;SDS011;44794;42.652;23.318;2023-04-30T10:15:42;4.78;;;3.70;;
59008;SDS011;44794;42.652;23.318;2023-04-30T10:18:18;5.10;;;4.57;;
59008;SDS011;44794;42.652;23.318;2023-04-30T10:20:52;5.90;;;4.60;;
59008;SDS011;44794;42.652;23.318;2023-04-30T10:23:19;8.23;;;4.90;;
59008;SDS011;44794;42.652;23.318;2023-04-30T10:25:46;5.60;;;4.60;;
59008;SDS011;44794;42.652;23.318;2023-04-30T10:28:12;7.55;;;5.57;;
59008;SDS011;44794;42.652;23.318;2023-04-30T10:30:39;8.90;;;4.07;;
59008;SDS011;44794;42.652;23.318;2023-04-30T10:35:53;10.23;;;5.90;;
59008;SDS011;44794;42.652;23.318;2023-04-30T10:38:30;13.88;;;6.45;;
59008;SDS011;44794;42.652;23.318;2023-04-30T10:41:00;14.45;;;8.27;;
59008;SDS011;44794;42.652;23.318;2023-04-30T10:43:28;13.35;;;9.05;;
59008;SDS011;44794;42.652;23.318;2023-04-30T10:45:55;12.35;;;9.57;;
59008;SDS011;44794;42.652;23.318;2023-04-30T10:48:22;11.63;;;8.35;;
59008;SDS011;44794;42.652;23.318;2023-04-30T10:50:54;11.07;;;9.02;;
59008;SDS011;44794;42.652;23.318;2023-04-30T10:53:21;15.60;;;11.20;;
59008;SDS011;44794;42.652;23.318;2023-04-30T10:55:52;16.60;;;10.60;;
59008;SDS011;44794;42.652;23.318;2023-04-30T10:58:34;13.15;;;11.23;;
59008;SDS011;44794;42.652;23.318;2023-04-30T11:01:07;13.20;;;10.40;;
59008;SDS011;44794;42.652;23.318;2023-04-30T11:03:35;15.20;;;10.80;;
59008;SDS011;44794;42.652;23.318;2023-04-30T11:06:14;14.27;;;10.10;;
59008;SDS011;44794;42.652;23.318;2023-04-30T11:08:44;12.63;;;9.45;;
59008;SDS011;44794;42.652;23.318;2023-04-30T11:11:11;9.77;;;8.70;;
59008;SDS011;44794;42.652;23.318;2023-04-30T11:13:44;9.77;;;7.35;;
59008;SDS011;44794;42.652;23.318;2023-04-30T11:16:28;7.47;;;6.25;;
59008;SDS011;44794;42.652;23.318;2023-04-30T11:18:55;7.05;;;6.35;;
59008;SDS011;44794;42.652;23.318;2023-04-30T11:21:31;6.88;;;5.47;;
59008;SDS011;44794;42.652;23.318;2023-04-30T11:24:01;6.82;;;4.97;;
59008;SDS011;44794;42.652;23.318;2023-04-30T11:26:40;10.02;;;5.50;;
59008;SDS011;44794;42.652;23.318;2023-04-30T11:29:29;9.45;;;5.50;;
59008;SDS011;44794;42.652;23.318;2023-04-30T11:31:55;7.65;;;5.60;;
59008;SDS011;44794;42.652;23.318;2023-04-30T11:34:25;6.07;;;4.60;;
59008;SDS011;44794;42.652;23.318;2023-04-30T11:36:51;6.07;;;5.45;;
59008;SDS011;44794;42.652;23.318;2023-04-30T11:39:22;7.70;;;4.10;;
59008;SDS011;44794;42.652;23.318;2023-04-30T11:41:50;4.32;;;3.92;;
59008;SDS011;44794;42.652;23.318;2023-04-30T11:44:22;5.18;;;4.60;;
59008;SDS011;44794;42.652;23.318;2023-04-30T11:46:51;5.25;;;4.55;;
59008;SDS011;44794;42.652;23.318;2023-04-30T11:49:17;7.43;;;4.82;;
59008;SDS011;44794;42.652;23.318;2023-04-30T11:51:47;6.18;;;4.85;;
59008;SDS011;44794;42.652;23.318;2023-04-30T11:54:14;4.18;;;3.80;;
59008;SDS011;44794;42.652;23.318;2023-04-30T11:56:44;5.18;;;3.80;;
59008;SDS011;44794;42.652;23.318;2023-04-30T11:59:12;4.70;;;3.70;;
59008;SDS011;44794;42.652;23.318;2023-04-30T12:01:38;5.28;;;3.97;;
59008;SDS011;44794;42.652;23.318;2023-04-30T12:04:04;6.28;;;4.32;;
59008;SDS011;44794;42.652;23.318;2023-04-30T12:06:30;6.70;;;4.00;;
59008;SDS011;44794;42.652;23.318;2023-04-30T12:08:57;4.72;;;4.32;;
59008;SDS011;44794;42.652;23.318;2023-04-30T12:11:28;7.75;;;4.60;;
59008;SDS011;44794;42.652;23.318;2023-04-30T12:13:56;5.18;;;4.65;;
59008;SDS011;44794;42.652;23.318;2023-04-30T12:16:26;5.70;;;4.27;;
59008;SDS011;44794;42.652;23.318;2023-04-30T12:18:52;5.95;;;4.57;;
59008;SDS011;44794;42.652;23.318;2023-04-30T12:21:19;6.85;;;4.60;;
59008;SDS011;44794;42.652;23.318;2023-04-30T12:23:45;5.22;;;4.30;;
59008;SDS011;44794;42.652;23.318;2023-04-30T12:26:11;6.47;;;5.30;;
59008;SDS011;44794;42.652;23.318;2023-04-30T12:28:37;6.32;;;5.03;;
59008;SDS011;44794;42.652;23.318;2023-04-30T12:31:02;7.55;;;5.25;;
59008;SDS011;44794;42.652;23.318;2023-04-30T12:33:30;7.65;;;5.63;;
59008;SDS011;44794;42.652;23.318;2023-04-30T12:35:56;5.88;;;5.00;;
59008;SDS011;44794;42.652;23.318;2023-04-30T12:38:23;5.55;;;4.55;;
59008;SDS011;44794;42.652;23.318;2023-04-30T12:40:49;5.68;;;4.47;;
59008;SDS011;44794;42.652;23.318;2023-04-30T12:43:15;5.28;;;4.72;;
59008;SDS011;44794;42.652;23.318;2023-04-30T12:48:17;6.38;;;4.45;;
59008;SDS011;44794;42.652;23.318;2023-04-30T12:51:02;6.45;;;4.00;;
59008;SDS011;44794;42.652;23.318;2023-04-30T12:53:29;5.15;;;4.32;;
59008;SDS011;44794;42.652;23.318;2023-04-30T12:58:44;4.30;;;3.60;;
59008;SDS011;44794;42.652;23.318;2023-04-30T13:01:12;4.72;;;3.42;;
59008;SDS011;44794;42.652;23.318;2023-04-30T13:03:39;4.10;;;3.60;;
59008;SDS011;44794;42.652;23.318;2023-04-30T13:06:05;4.53;;;3.50;;
59008;SDS011;44794;42.652;23.318;2023-04-30T13:08:31;4.47;;;3.85;;
59008;SDS011;44794;42.652;23.318;2023-04-30T13:10:58;4.10;;;3.30;;
59008;SDS011;44794;42.652;23.318;2023-04-30T13:13:25;6.07;;;3.40;;
59008;SDS011;44794;42.652;23.318;2023-04-30T13:15:50;5.07;;;3.67;;
59008;SDS011;44794;42.652;23.318;2023-04-30T13:18:16;4.43;;;3.40;;
59008;SDS011;44794;42.652;23.318;2023-04-30T13:20:42;5.18;;;3.80;;
59008;SDS011;44794;42.652;23.318;2023-04-30T13:23:08;7.50;;;4.03;;
59008;SDS011;44794;42.652;23.318;2023-04-30T13:25:35;4.00;;;3.55;;
59008;SDS011;44794;42.652;23.318;2023-04-30T13:28:02;4.43;;;3.60;;
59008;SDS011;44794;42.652;23.318;2023-04-30T13:30:28;5.50;;;3.60;;
59008;SDS011;44794;42.652;23.318;2023-04-30T13:32:53;5.35;;;4.10;;
59008;SDS011;44794;42.652;23.318;2023-04-30T13:35:19;5.20;;;3.45;;
59008;SDS011;44794;42.652;23.318;2023-04-30T13:37:45;4.07;;;3.67;;
59008;SDS011;44794;42.652;23.318;2023-04-30T13:40:16;4.82;;;4.28;;
59008;SDS011;44794;42.652;23.318;2023-04-30T13:42:44;4.57;;;3.92;;
59008;SDS011;44794;42.652;23.318;2023-04-30T13:45:10;5.30;;;3.67;;
59008;SDS011;44794;42.652;23.318;2023-04-30T13:47:36;4.40;;;4.00;;
59008;SDS011;44794;42.652;23.318;2023-04-30T13:50:02;5.28;;;4.00;;
59008;SDS011;44794;42.652;23.318;2023-04-30T13:52:28;5.55;;;4.03;;
59008;SDS011;44794;42.652;23.318;2023-04-30T13:54:53;6.15;;;4.32;;
59008;SDS011;44794;42.652;23.318;2023-04-30T13:57:18;4.57;;;4.10;;
59008;SDS011;44794;42.652;23.318;2023-04-30T13:59:45;6.97;;;4.10;;
59008;SDS011;44794;42.652;23.318;2023-04-30T14:02:12;4.93;;;4.28;;
59008;SDS011;44794;42.652;23.318;2023-04-30T14:04:37;4.10;;;3.70;;
59008;SDS011;44794;42.652;23.318;2023-04-30T14:07:03;5.82;;;4.18;;
59008;SDS011;44794;42.652;23.318;2023-04-30T14:09:28;4.50;;;3.92;;
59008;SDS011;44794;42.652;23.318;2023-04-30T14:11:54;4.63;;;3.80;;
59008;SDS011;44794;42.652;23.318;2023-04-30T14:14:23;5.15;;;4.07;;
59008;SDS011;44794;42.652;23.318;2023-04-30T14:16:49;5.07;;;4.25;;
59008;SDS011;44794;42.652;23.318;2023-04-30T14:19:14;7.70;;;4.25;;
59008;SDS011;44794;42.652;23.318;2023-04-30T14:21:39;7.20;;;3.60;;
59008;SDS011;44794;42.652;23.318;2023-04-30T14:24:05;5.57;;;3.88;;
59008;SDS011;44794;42.652;23.318;2023-04-30T14:26:30;6.85;;;4.13;;
59008;SDS011;44794;42.652;23.318;2023-04-30T14:28:56;6.50;;;4.00;;
59008;SDS011;44794;42.652;23.318;2023-04-30T14:31:22;5.25;;;4.20;;
59008;SDS011;44794;42.652;23.318;2023-04-30T14:33:47;4.72;;;4.07;;
59008;SDS011;44794;42.652;23.318;2023-04-30T14:36:13;5.20;;;3.70;;
59008;SDS011;44794;42.652;23.318;2023-04-30T14:38:38;4.55;;;3.80;;
59008;SDS011;44794;42.652;23.318;2023-04-30T14:41:03;5.32;;;3.53;;